sensor_id;sensor_type;location;lat;lon;timestamp;P1;durP1;ratioP1;P2;durP2;ratioP2
74152;SDS011;62505;46.070;14.492;2024-03-23T00:53:09;9.35;;;2.03;;
74152;SDS011;62505;46.070;14.492;2024-03-23T00:55:35;4.68;;;2.30;;
74152;SDS011;62505;46.070;14.492;2024-03-23T00:58:02;2.88;;;1.92;;
74152;SDS011;62505;46.070;14.492;2024-03-23T01:00:28;4.82;;;1.95;;
74152;SDS011;62505;46.070;14.492;2024-03-23T01:02:55;2.97;;;2.05;;
74152;SDS011;62505;46.070;14.492;2024-03-23T01:05:21;4.90;;;2.35;;
74152;SDS011;62505;46.070;14.492;2024-03-23T01:07:48;2.40;;;1.92;;
74152;SDS011;62505;46.070;14.492;2024-03-23T01:10:15;3.30;;;2.30;;
74152;SDS011;62505;46.070;14.492;2024-03-23T01:12:42;3.65;;;1.92;;
74152;SDS011;62505;46.070;14.492;2024-03-23T01:15:08;3.08;;;1.80;;
74152;SDS011;62505;46.070;14.492;2024-03-23T01:17:35;3.55;;;1.88;;
74152;SDS011;62505;46.070;14.492;2024-03-23T01:20:01;2.63;;;2.00;;
74152;SDS011;62505;46.070;14.492;2024-03-23T01:22:29;2.75;;;1.98;;
74152;SDS011;62505;46.070;14.492;2024-03-23T01:24:55;3.03;;;2.03;;
74152;SDS011;62505;46.070;14.492;2024-03-23T01:27:23;2.92;;;2.10;;
74152;SDS011;62505;46.070;14.492;2024-03-23T01:29:49;5.25;;;2.03;;
74152;SDS011;62505;46.070;14.492;2024-03-23T01:32:17;4.57;;;2.00;;
74152;SDS011;62505;46.070;14.492;2024-03-23T01:34:43;3.95;;;1.98;;
74152;SDS011;62505;46.070;14.492;2024-03-23T01:37:10;3.65;;;2.60;;
74152;SDS011;62505;46.070;14.492;2024-03-23T01:39:36;3.05;;;2.10;;
74152;SDS011;62505;46.070;14.492;2024-03-23T01:42:03;3.22;;;2.10;;
74152;SDS011;62505;46.070;14.492;2024-03-23T01:44:31;2.35;;;1.85;;
74152;SDS011;62505;46.070;14.492;2024-03-23T01:46:58;3.53;;;2.22;;
74152;SDS011;62505;46.070;14.492;2024-03-23T01:49:23;3.95;;;2.28;;
74152;SDS011;62505;46.070;14.492;2024-03-23T01:51:51;2.75;;;1.75;;
74152;SDS011;62505;46.070;14.492;2024-03-23T01:54:17;2.92;;;2.03;;
74152;SDS011;62505;46.070;14.492;2024-03-23T01:56:44;2.97;;;2.08;;
74152;SDS011;62505;46.070;14.492;2024-03-23T01:59:11;2.75;;;2.13;;
74152;SDS011;62505;46.070;14.492;2024-03-23T02:01:39;2.30;;;2.00;;
74152;SDS011;62505;46.070;14.492;2024-03-23T02:04:05;2.38;;;1.80;;
74152;SDS011;62505;46.070;14.492;2024-03-23T02:06:34;4.57;;;2.55;;
74152;SDS011;62505;46.070;14.492;2024-03-23T02:09:00;4.07;;;2.05;;
74152;SDS011;62505;46.070;14.492;2024-03-23T02:11:27;2.80;;;1.98;;
74152;SDS011;62505;46.070;14.492;2024-03-23T02:13:53;4.68;;;2.60;;
74152;SDS011;62505;46.070;14.492;2024-03-23T02:16:20;3.58;;;2.30;;
74152;SDS011;62505;46.070;14.492;2024-03-23T02:18:47;3.05;;;2.15;;
74152;SDS011;62505;46.070;14.492;2024-03-23T02:21:15;3.15;;;1.83;;
74152;SDS011;62505;46.070;14.492;2024-03-23T02:23:42;2.70;;;2.08;;
74152;SDS011;62505;46.070;14.492;2024-03-23T02:26:09;3.38;;;1.90;;
74152;SDS011;62505;46.070;14.492;2024-03-23T02:28:35;3.45;;;1.92;;
74152;SDS011;62505;46.070;14.492;2024-03-23T02:31:02;4.57;;;2.40;;
74152;SDS011;62505;46.070;14.492;2024-03-23T02:33:29;2.90;;;2.22;;
74152;SDS011;62505;46.070;14.492;2024-03-23T02:35:57;2.80;;;2.30;;
74152;SDS011;62505;46.070;14.492;2024-03-23T02:38:23;4.32;;;2.13;;
74152;SDS011;62505;46.070;14.492;2024-03-23T02:40:51;3.50;;;2.20;;
74152;SDS011;62505;46.070;14.492;2024-03-23T02:43:17;3.83;;;2.10;;
74152;SDS011;62505;46.070;14.492;2024-03-23T02:45:44;4.18;;;2.40;;
74152;SDS011;62505;46.070;14.492;2024-03-23T02:48:10;4.78;;;2.40;;
74152;SDS011;62505;46.070;14.492;2024-03-23T02:50:37;5.05;;;2.47;;
74152;SDS011;62505;46.070;14.492;2024-03-23T02:53:03;3.45;;;2.13;;
74152;SDS011;62505;46.070;14.492;2024-03-23T02:55:30;2.40;;;2.10;;
74152;SDS011;62505;46.070;14.492;2024-03-23T02:57:57;2.83;;;1.90;;
74152;SDS011;62505;46.070;14.492;2024-03-23T03:00:26;1.92;;;1.75;;
74152;SDS011;62505;46.070;14.492;2024-03-23T03:02:53;2.58;;;1.85;;
74152;SDS011;62505;46.070;14.492;2024-03-23T03:05:20;4.35;;;1.98;;
74152;SDS011;62505;46.070;14.492;2024-03-23T03:07:46;3.15;;;1.98;;
74152;SDS011;62505;46.070;14.492;2024-03-23T03:10:13;2.85;;;2.00;;
74152;SDS011;62505;46.070;14.492;2024-03-23T03:12:39;4.45;;;2.03;;
74152;SDS011;62505;46.070;14.492;2024-03-23T03:15:08;3.83;;;2.03;;
74152;SDS011;62505;46.070;14.492;2024-03-23T03:17:34;3.95;;;2.38;;
74152;SDS011;62505;46.070;14.492;2024-03-23T03:20:01;3.58;;;2.10;;
74152;SDS011;62505;46.070;14.492;2024-03-23T03:22:30;2.53;;;1.92;;
74152;SDS011;62505;46.070;14.492;2024-03-23T03:24:57;4.88;;;1.95;;
74152;SDS011;62505;46.070;14.492;2024-03-23T03:27:23;5.53;;;2.30;;
74152;SDS011;62505;46.070;14.492;2024-03-23T03:29:50;3.28;;;2.17;;
74152;SDS011;62505;46.070;14.492;2024-03-23T03:32:17;3.28;;;1.83;;
74152;SDS011;62505;46.070;14.492;2024-03-23T03:34:44;4.45;;;2.00;;
74152;SDS011;62505;46.070;14.492;2024-03-23T03:37:10;5.97;;;2.08;;
74152;SDS011;62505;46.070;14.492;2024-03-23T03:39:37;3.28;;;2.22;;
74152;SDS011;62505;46.070;14.492;2024-03-23T03:42:02;3.28;;;2.30;;
74152;SDS011;62505;46.070;14.492;2024-03-23T03:44:31;2.75;;;1.95;;
74152;SDS011;62505;46.070;14.492;2024-03-23T03:46:58;4.00;;;2.33;;
74152;SDS011;62505;46.070;14.492;2024-03-23T03:49:26;3.53;;;2.08;;
74152;SDS011;62505;46.070;14.492;2024-03-23T03:51:52;2.72;;;2.20;;
74152;SDS011;62505;46.070;14.492;2024-03-23T03:54:19;3.83;;;2.15;;
74152;SDS011;62505;46.070;14.492;2024-03-23T03:56:45;3.08;;;2.03;;
74152;SDS011;62505;46.070;14.492;2024-03-23T03:59:12;2.28;;;1.90;;
74152;SDS011;62505;46.070;14.492;2024-03-23T04:01:37;3.85;;;2.30;;
74152;SDS011;62505;46.070;14.492;2024-03-23T04:04:04;2.90;;;2.28;;
74152;SDS011;62505;46.070;14.492;2024-03-23T04:06:32;3.58;;;2.03;;
74152;SDS011;62505;46.070;14.492;2024-03-23T04:08:59;4.45;;;2.28;;
74152;SDS011;62505;46.070;14.492;2024-03-23T04:11:25;4.07;;;1.90;;
74152;SDS011;62505;46.070;14.492;2024-03-23T04:13:53;3.22;;;2.08;;
74152;SDS011;62505;46.070;14.492;2024-03-23T04:16:26;3.60;;;2.40;;
74152;SDS011;62505;46.070;14.492;2024-03-23T04:18:54;3.88;;;2.55;;
74152;SDS011;62505;46.070;14.492;2024-03-23T04:21:20;2.42;;;1.95;;
74152;SDS011;62505;46.070;14.492;2024-03-23T04:23:49;2.95;;;2.22;;
74152;SDS011;62505;46.070;14.492;2024-03-23T04:26:15;2.28;;;1.95;;
74152;SDS011;62505;46.070;14.492;2024-03-23T04:28:42;3.50;;;1.90;;
74152;SDS011;62505;46.070;14.492;2024-03-23T04:31:08;3.53;;;2.17;;
74152;SDS011;62505;46.070;14.492;2024-03-23T04:33:35;3.35;;;2.15;;
74152;SDS011;62505;46.070;14.492;2024-03-23T04:36:01;2.38;;;2.10;;
74152;SDS011;62505;46.070;14.492;2024-03-23T04:38:29;2.70;;;1.83;;
74152;SDS011;62505;46.070;14.492;2024-03-23T04:40:57;2.67;;;2.17;;
74152;SDS011;62505;46.070;14.492;2024-03-23T04:43:25;3.63;;;2.63;;
74152;SDS011;62505;46.070;14.492;2024-03-23T04:45:52;3.55;;;2.47;;
74152;SDS011;62505;46.070;14.492;2024-03-23T04:48:19;4.20;;;2.30;;
74152;SDS011;62505;46.070;14.492;2024-03-23T04:50:47;3.92;;;2.30;;
74152;SDS011;62505;46.070;14.492;2024-03-23T04:53:15;3.22;;;2.47;;
74152;SDS011;62505;46.070;14.492;2024-03-23T04:55:42;3.28;;;2.08;;
74152;SDS011;62505;46.070;14.492;2024-03-23T04:58:11;3.08;;;2.25;;
74152;SDS011;62505;46.070;14.492;2024-03-23T05:00:37;4.05;;;2.58;;
74152;SDS011;62505;46.070;14.492;2024-03-23T05:03:04;4.28;;;2.60;;
74152;SDS011;62505;46.070;14.492;2024-03-23T05:05:30;5.07;;;2.97;;
74152;SDS011;62505;46.070;14.492;2024-03-23T05:07:57;4.63;;;2.40;;
74152;SDS011;62505;46.070;14.492;2024-03-23T05:10:23;3.13;;;2.20;;
74152;SDS011;62505;46.070;14.492;2024-03-23T05:12:50;3.97;;;2.30;;
74152;SDS011;62505;46.070;14.492;2024-03-23T05:15:18;3.72;;;2.38;;
74152;SDS011;62505;46.070;14.492;2024-03-23T05:17:45;3.63;;;2.30;;
74152;SDS011;62505;46.070;14.492;2024-03-23T05:20:11;2.50;;;2.30;;
74152;SDS011;62505;46.070;14.492;2024-03-23T05:22:39;3.53;;;2.75;;
74152;SDS011;62505;46.070;14.492;2024-03-23T05:25:05;3.47;;;2.03;;
74152;SDS011;62505;46.070;14.492;2024-03-23T05:27:32;3.58;;;2.55;;
74152;SDS011;62505;46.070;14.492;2024-03-23T05:29:58;4.60;;;2.28;;
74152;SDS011;62505;46.070;14.492;2024-03-23T05:32:27;3.80;;;2.25;;
74152;SDS011;62505;46.070;14.492;2024-03-23T05:34:53;3.63;;;2.55;;
74152;SDS011;62505;46.070;14.492;2024-03-23T05:37:22;3.13;;;2.30;;
74152;SDS011;62505;46.070;14.492;2024-03-23T05:39:48;4.07;;;2.70;;
74152;SDS011;62505;46.070;14.492;2024-03-23T05:42:15;2.85;;;2.00;;
74152;SDS011;62505;46.070;14.492;2024-03-23T05:44:42;4.28;;;2.17;;
74152;SDS011;62505;46.070;14.492;2024-03-23T05:47:10;6.72;;;2.83;;
74152;SDS011;62505;46.070;14.492;2024-03-23T05:49:38;4.15;;;2.40;;
74152;SDS011;62505;46.070;14.492;2024-03-23T05:52:06;3.20;;;2.50;;
74152;SDS011;62505;46.070;14.492;2024-03-23T05:54:32;3.83;;;2.20;;
74152;SDS011;62505;46.070;14.492;2024-03-23T05:56:59;3.63;;;2.20;;
74152;SDS011;62505;46.070;14.492;2024-03-23T05:59:25;3.42;;;2.45;;
74152;SDS011;62505;46.070;14.492;2024-03-23T06:01:52;3.40;;;2.25;;
74152;SDS011;62505;46.070;14.492;2024-03-23T06:04:18;6.45;;;2.38;;
74152;SDS011;62505;46.070;14.492;2024-03-23T06:06:47;3.15;;;2.20;;
74152;SDS011;62505;46.070;14.492;2024-03-23T06:09:13;4.78;;;2.47;;
74152;SDS011;62505;46.070;14.492;2024-03-23T06:11:40;3.00;;;2.40;;
74152;SDS011;62505;46.070;14.492;2024-03-23T06:14:06;3.95;;;2.67;;
74152;SDS011;62505;46.070;14.492;2024-03-23T06:16:33;4.93;;;2.45;;
74152;SDS011;62505;46.070;14.492;2024-03-23T06:18:59;3.53;;;2.47;;
74152;SDS011;62505;46.070;14.492;2024-03-23T06:21:28;5.55;;;2.50;;
74152;SDS011;62505;46.070;14.492;2024-03-23T06:23:56;3.20;;;2.42;;
74152;SDS011;62505;46.070;14.492;2024-03-23T06:26:23;3.45;;;2.55;;
74152;SDS011;62505;46.070;14.492;2024-03-23T06:28:49;3.55;;;2.40;;
74152;SDS011;62505;46.070;14.492;2024-03-23T06:31:16;4.60;;;2.67;;
74152;SDS011;62505;46.070;14.492;2024-03-23T06:33:42;3.85;;;2.65;;
74152;SDS011;62505;46.070;14.492;2024-03-23T06:36:09;4.22;;;2.83;;
74152;SDS011;62505;46.070;14.492;2024-03-23T06:38:35;5.68;;;2.35;;
74152;SDS011;62505;46.070;14.492;2024-03-23T06:41:04;3.65;;;2.53;;
74152;SDS011;62505;46.070;14.492;2024-03-23T06:43:30;4.20;;;2.45;;
74152;SDS011;62505;46.070;14.492;2024-03-23T06:45:57;3.38;;;2.33;;
74152;SDS011;62505;46.070;14.492;2024-03-23T06:48:24;5.40;;;2.60;;
74152;SDS011;62505;46.070;14.492;2024-03-23T06:50:55;5.47;;;2.92;;
74152;SDS011;62505;46.070;14.492;2024-03-23T06:53:21;5.43;;;2.67;;
74152;SDS011;62505;46.070;14.492;2024-03-23T06:55:49;6.30;;;2.63;;
74152;SDS011;62505;46.070;14.492;2024-03-23T06:58:18;4.72;;;2.78;;
74152;SDS011;62505;46.070;14.492;2024-03-23T07:00:46;6.00;;;2.70;;
74152;SDS011;62505;46.070;14.492;2024-03-23T07:03:12;5.25;;;2.88;;
74152;SDS011;62505;46.070;14.492;2024-03-23T07:05:39;4.68;;;2.65;;
74152;SDS011;62505;46.070;14.492;2024-03-23T07:08:05;7.30;;;3.42;;
74152;SDS011;62505;46.070;14.492;2024-03-23T07:10:32;6.68;;;2.90;;
74152;SDS011;62505;46.070;14.492;2024-03-23T07:12:58;11.25;;;3.08;;
74152;SDS011;62505;46.070;14.492;2024-03-23T07:15:26;7.47;;;3.17;;
74152;SDS011;62505;46.070;14.492;2024-03-23T07:17:52;7.55;;;3.50;;
74152;SDS011;62505;46.070;14.492;2024-03-23T07:20:19;6.85;;;3.28;;
74152;SDS011;62505;46.070;14.492;2024-03-23T07:22:45;7.60;;;3.00;;
74152;SDS011;62505;46.070;14.492;2024-03-23T07:25:14;4.72;;;3.15;;
74152;SDS011;62505;46.070;14.492;2024-03-23T07:27:40;12.73;;;3.58;;
74152;SDS011;62505;46.070;14.492;2024-03-23T07:30:07;8.93;;;3.17;;
74152;SDS011;62505;46.070;14.492;2024-03-23T07:32:35;6.18;;;3.28;;
74152;SDS011;62505;46.070;14.492;2024-03-23T07:35:02;5.93;;;3.28;;
74152;SDS011;62505;46.070;14.492;2024-03-23T07:37:29;9.43;;;3.75;;
74152;SDS011;62505;46.070;14.492;2024-03-23T07:39:56;8.20;;;4.20;;
74152;SDS011;62505;46.070;14.492;2024-03-23T07:42:22;7.18;;;3.72;;
74152;SDS011;62505;46.070;14.492;2024-03-23T07:44:51;12.30;;;3.55;;
74152;SDS011;62505;46.070;14.492;2024-03-23T07:47:18;6.28;;;3.97;;
74152;SDS011;62505;46.070;14.492;2024-03-23T07:49:47;7.03;;;3.58;;
74152;SDS011;62505;46.070;14.492;2024-03-23T07:52:13;6.03;;;3.55;;
74152;SDS011;62505;46.070;14.492;2024-03-23T07:54:40;7.72;;;4.13;;
74152;SDS011;62505;46.070;14.492;2024-03-23T07:57:06;5.53;;;3.78;;
74152;SDS011;62505;46.070;14.492;2024-03-23T07:59:33;5.88;;;3.88;;
74152;SDS011;62505;46.070;14.492;2024-03-23T08:01:59;5.88;;;3.60;;
74152;SDS011;62505;46.070;14.492;2024-03-23T08:04:26;5.22;;;3.25;;
74152;SDS011;62505;46.070;14.492;2024-03-23T08:06:55;4.93;;;3.40;;
74152;SDS011;62505;46.070;14.492;2024-03-23T08:09:21;7.75;;;3.85;;
74152;SDS011;62505;46.070;14.492;2024-03-23T08:11:48;5.28;;;3.45;;
74152;SDS011;62505;46.070;14.492;2024-03-23T08:14:14;6.68;;;3.80;;
74152;SDS011;62505;46.070;14.492;2024-03-23T08:16:41;7.10;;;3.50;;
74152;SDS011;62505;46.070;14.492;2024-03-23T08:19:13;5.63;;;3.78;;
74152;SDS011;62505;46.070;14.492;2024-03-23T08:21:40;7.45;;;3.78;;
74152;SDS011;62505;46.070;14.492;2024-03-23T08:24:08;6.07;;;3.75;;
74152;SDS011;62505;46.070;14.492;2024-03-23T08:26:34;6.53;;;3.50;;
74152;SDS011;62505;46.070;14.492;2024-03-23T08:29:02;5.45;;;3.72;;
74152;SDS011;62505;46.070;14.492;2024-03-23T08:31:29;6.88;;;2.97;;
74152;SDS011;62505;46.070;14.492;2024-03-23T08:33:55;5.05;;;3.45;;
74152;SDS011;62505;46.070;14.492;2024-03-23T08:36:22;5.88;;;3.10;;
74152;SDS011;62505;46.070;14.492;2024-03-23T08:38:49;6.60;;;3.67;;
74152;SDS011;62505;46.070;14.492;2024-03-23T08:41:20;4.82;;;3.42;;
74152;SDS011;62505;46.070;14.492;2024-03-23T08:43:46;6.63;;;2.85;;
74152;SDS011;62505;46.070;14.492;2024-03-23T08:46:13;5.72;;;3.25;;
74152;SDS011;62505;46.070;14.492;2024-03-23T08:48:40;5.45;;;3.22;;
74152;SDS011;62505;46.070;14.492;2024-03-23T08:51:09;7.03;;;3.08;;
74152;SDS011;62505;46.070;14.492;2024-03-23T08:53:36;5.18;;;2.72;;
74152;SDS011;62505;46.070;14.492;2024-03-23T08:56:04;5.13;;;3.70;;
74152;SDS011;62505;46.070;14.492;2024-03-23T08:58:33;5.57;;;3.22;;
74152;SDS011;62505;46.070;14.492;2024-03-23T09:01:06;5.40;;;3.28;;
74152;SDS011;62505;46.070;14.492;2024-03-23T09:03:33;5.53;;;3.13;;
74152;SDS011;62505;46.070;14.492;2024-03-23T09:06:00;6.35;;;3.75;;
74152;SDS011;62505;46.070;14.492;2024-03-23T09:08:26;4.18;;;2.75;;
74152;SDS011;62505;46.070;14.492;2024-03-23T09:10:53;4.85;;;2.83;;
74152;SDS011;62505;46.070;14.492;2024-03-23T09:13:19;6.32;;;3.22;;
74152;SDS011;62505;46.070;14.492;2024-03-23T09:15:48;8.52;;;3.53;;
74152;SDS011;62505;46.070;14.492;2024-03-23T09:18:15;5.63;;;3.10;;
74152;SDS011;62505;46.070;14.492;2024-03-23T09:20:42;7.53;;;2.85;;
74152;SDS011;62505;46.070;14.492;2024-03-23T09:23:08;3.45;;;2.85;;
74152;SDS011;62505;46.070;14.492;2024-03-23T09:25:36;4.78;;;3.15;;
74152;SDS011;62505;46.070;14.492;2024-03-23T09:28:03;4.28;;;2.92;;
74152;SDS011;62505;46.070;14.492;2024-03-23T09:30:30;6.35;;;3.22;;
74152;SDS011;62505;46.070;14.492;2024-03-23T09:32:58;5.30;;;3.28;;
74152;SDS011;62505;46.070;14.492;2024-03-23T09:35:26;5.25;;;3.10;;
74152;SDS011;62505;46.070;14.492;2024-03-23T09:37:52;4.97;;;3.15;;
74152;SDS011;62505;46.070;14.492;2024-03-23T09:40:19;5.03;;;2.83;;
74152;SDS011;62505;46.070;14.492;2024-03-23T09:42:49;5.20;;;2.83;;
74152;SDS011;62505;46.070;14.492;2024-03-23T09:45:17;4.35;;;3.10;;
74152;SDS011;62505;46.070;14.492;2024-03-23T09:47:45;5.13;;;2.65;;
74152;SDS011;62505;46.070;14.492;2024-03-23T09:50:14;4.85;;;3.22;;
74152;SDS011;62505;46.070;14.492;2024-03-23T09:52:40;3.28;;;2.88;;
74152;SDS011;62505;46.070;14.492;2024-03-23T09:55:07;4.15;;;2.72;;
74152;SDS011;62505;46.070;14.492;2024-03-23T09:57:34;5.03;;;2.80;;
74152;SDS011;62505;46.070;14.492;2024-03-23T10:00:01;4.03;;;2.80;;
74152;SDS011;62505;46.070;14.492;2024-03-23T10:02:27;4.57;;;2.70;;
74152;SDS011;62505;46.070;14.492;2024-03-23T10:04:55;5.18;;;3.00;;
74152;SDS011;62505;46.070;14.492;2024-03-23T10:07:25;7.15;;;2.88;;
74152;SDS011;62505;46.070;14.492;2024-03-23T10:09:53;3.53;;;2.60;;
74152;SDS011;62505;46.070;14.492;2024-03-23T10:12:20;7.30;;;3.25;;
74152;SDS011;62505;46.070;14.492;2024-03-23T10:14:47;6.78;;;3.25;;
74152;SDS011;62505;46.070;14.492;2024-03-23T10:17:14;9.07;;;3.22;;
74152;SDS011;62505;46.070;14.492;2024-03-23T10:19:43;12.00;;;3.65;;
74152;SDS011;62505;46.070;14.492;2024-03-23T10:22:13;6.88;;;3.10;;
74152;SDS011;62505;46.070;14.492;2024-03-23T10:24:41;8.27;;;3.20;;
74152;SDS011;62505;46.070;14.492;2024-03-23T10:27:08;12.38;;;3.95;;
74152;SDS011;62505;46.070;14.492;2024-03-23T10:29:34;10.50;;;3.50;;
74152;SDS011;62505;46.070;14.492;2024-03-23T10:32:08;13.73;;;3.75;;
74152;SDS011;62505;46.070;14.492;2024-03-23T10:34:35;9.25;;;3.28;;
74152;SDS011;62505;46.070;14.492;2024-03-23T10:37:02;18.13;;;4.07;;
74152;SDS011;62505;46.070;14.492;2024-03-23T10:39:30;14.82;;;3.55;;
74152;SDS011;62505;46.070;14.492;2024-03-23T10:42:03;9.50;;;2.90;;
74152;SDS011;62505;46.070;14.492;2024-03-23T10:44:30;8.60;;;3.25;;
74152;SDS011;62505;46.070;14.492;2024-03-23T10:46:58;11.25;;;3.20;;
74152;SDS011;62505;46.070;14.492;2024-03-23T10:49:26;8.63;;;3.30;;
74152;SDS011;62505;46.070;14.492;2024-03-23T10:51:56;8.60;;;4.10;;
74152;SDS011;62505;46.070;14.492;2024-03-23T10:54:24;9.98;;;3.30;;
74152;SDS011;62505;46.070;14.492;2024-03-23T10:56:52;10.00;;;3.15;;
74152;SDS011;62505;46.070;14.492;2024-03-23T10:59:26;9.70;;;3.75;;
74152;SDS011;62505;46.070;14.492;2024-03-23T11:01:53;7.50;;;3.10;;
74152;SDS011;62505;46.070;14.492;2024-03-23T11:04:29;14.05;;;3.40;;
74152;SDS011;62505;46.070;14.492;2024-03-23T11:06:56;9.23;;;3.95;;
74152;SDS011;62505;46.070;14.492;2024-03-23T11:09:38;8.23;;;3.30;;
74152;SDS011;62505;46.070;14.492;2024-03-23T11:15:00;7.22;;;3.33;;
74152;SDS011;62505;46.070;14.492;2024-03-23T11:17:29;8.57;;;3.42;;
74152;SDS011;62505;46.070;14.492;2024-03-23T11:19:56;6.65;;;2.53;;
74152;SDS011;62505;46.070;14.492;2024-03-23T11:22:39;5.65;;;2.90;;
74152;SDS011;62505;46.070;14.492;2024-03-23T11:25:16;6.57;;;2.47;;
74152;SDS011;62505;46.070;14.492;2024-03-23T11:27:44;6.55;;;2.72;;
74152;SDS011;62505;46.070;14.492;2024-03-23T11:30:14;4.35;;;2.50;;
74152;SDS011;62505;46.070;14.492;2024-03-23T11:32:42;6.43;;;2.97;;
74152;SDS011;62505;46.070;14.492;2024-03-23T11:35:10;6.35;;;3.00;;
74152;SDS011;62505;46.070;14.492;2024-03-23T11:37:36;8.30;;;2.70;;
74152;SDS011;62505;46.070;14.492;2024-03-23T11:40:16;6.95;;;3.03;;
74152;SDS011;62505;46.070;14.492;2024-03-23T11:42:43;11.07;;;3.08;;
74152;SDS011;62505;46.070;14.492;2024-03-23T11:45:10;7.20;;;3.15;;
74152;SDS011;62505;46.070;14.492;2024-03-23T11:47:38;8.48;;;3.22;;
74152;SDS011;62505;46.070;14.492;2024-03-23T11:50:05;6.70;;;2.83;;
74152;SDS011;62505;46.070;14.492;2024-03-23T11:52:31;8.13;;;3.03;;
74152;SDS011;62505;46.070;14.492;2024-03-23T11:55:04;9.45;;;3.75;;
74152;SDS011;62505;46.070;14.492;2024-03-23T11:57:33;5.88;;;2.58;;
74152;SDS011;62505;46.070;14.492;2024-03-23T12:00:00;5.60;;;2.78;;
74152;SDS011;62505;46.070;14.492;2024-03-23T12:02:26;6.32;;;2.60;;
74152;SDS011;62505;46.070;14.492;2024-03-23T12:04:55;5.80;;;2.85;;
74152;SDS011;62505;46.070;14.492;2024-03-23T12:07:21;9.82;;;3.00;;
74152;SDS011;62505;46.070;14.492;2024-03-23T12:10:02;4.93;;;2.55;;
74152;SDS011;62505;46.070;14.492;2024-03-23T12:12:28;7.22;;;2.97;;
74152;SDS011;62505;46.070;14.492;2024-03-23T12:15:01;5.10;;;2.58;;
74152;SDS011;62505;46.070;14.492;2024-03-23T12:17:28;5.90;;;2.53;;
74152;SDS011;62505;46.070;14.492;2024-03-23T12:19:56;4.43;;;3.00;;
74152;SDS011;62505;46.070;14.492;2024-03-23T12:22:22;5.15;;;2.20;;
74152;SDS011;62505;46.070;14.492;2024-03-23T12:24:50;6.95;;;2.40;;
74152;SDS011;62505;46.070;14.492;2024-03-23T12:27:16;4.57;;;2.40;;
74152;SDS011;62505;46.070;14.492;2024-03-23T12:29:43;6.55;;;2.70;;
74152;SDS011;62505;46.070;14.492;2024-03-23T12:32:11;5.28;;;2.70;;
74152;SDS011;62505;46.070;14.492;2024-03-23T12:34:38;6.28;;;2.58;;
74152;SDS011;62505;46.070;14.492;2024-03-23T12:37:06;7.55;;;2.70;;
74152;SDS011;62505;46.070;14.492;2024-03-23T12:39:34;3.58;;;2.08;;
74152;SDS011;62505;46.070;14.492;2024-03-23T12:42:00;3.65;;;2.65;;
74152;SDS011;62505;46.070;14.492;2024-03-23T12:44:28;5.93;;;2.17;;
74152;SDS011;62505;46.070;14.492;2024-03-23T12:46:54;5.43;;;2.42;;
74152;SDS011;62505;46.070;14.492;2024-03-23T12:49:21;5.97;;;2.50;;
74152;SDS011;62505;46.070;14.492;2024-03-23T12:51:48;3.65;;;2.25;;
74152;SDS011;62505;46.070;14.492;2024-03-23T12:54:22;7.13;;;2.53;;
74152;SDS011;62505;46.070;14.492;2024-03-23T12:56:48;6.10;;;2.70;;
74152;SDS011;62505;46.070;14.492;2024-03-23T12:59:15;6.00;;;2.38;;
74152;SDS011;62505;46.070;14.492;2024-03-23T13:01:41;6.05;;;2.50;;
74152;SDS011;62505;46.070;14.492;2024-03-23T13:04:08;4.32;;;2.50;;
74152;SDS011;62505;46.070;14.492;2024-03-23T13:06:34;4.28;;;2.50;;
74152;SDS011;62505;46.070;14.492;2024-03-23T13:09:01;4.05;;;2.28;;
74152;SDS011;62505;46.070;14.492;2024-03-23T13:11:29;5.75;;;2.33;;
74152;SDS011;62505;46.070;14.492;2024-03-23T13:13:56;5.43;;;2.17;;
74152;SDS011;62505;46.070;14.492;2024-03-23T13:16:22;6.05;;;2.70;;
74152;SDS011;62505;46.070;14.492;2024-03-23T13:18:49;4.70;;;2.55;;
74152;SDS011;62505;46.070;14.492;2024-03-23T13:21:15;3.92;;;2.70;;
74152;SDS011;62505;46.070;14.492;2024-03-23T13:23:42;4.93;;;2.30;;
74152;SDS011;62505;46.070;14.492;2024-03-23T13:26:13;7.13;;;2.47;;
74152;SDS011;62505;46.070;14.492;2024-03-23T13:28:41;6.25;;;2.70;;
74152;SDS011;62505;46.070;14.492;2024-03-23T13:31:07;5.05;;;2.30;;
74152;SDS011;62505;46.070;14.492;2024-03-23T13:33:34;4.28;;;2.15;;
74152;SDS011;62505;46.070;14.492;2024-03-23T13:36:00;6.80;;;2.55;;
74152;SDS011;62505;46.070;14.492;2024-03-23T13:38:27;3.70;;;2.40;;
74152;SDS011;62505;46.070;14.492;2024-03-23T13:40:54;4.22;;;2.28;;
74152;SDS011;62505;46.070;14.492;2024-03-23T13:43:22;3.60;;;2.50;;
74152;SDS011;62505;46.070;14.492;2024-03-23T13:45:51;5.15;;;2.15;;
74152;SDS011;62505;46.070;14.492;2024-03-23T13:48:20;5.00;;;2.17;;
74152;SDS011;62505;46.070;14.492;2024-03-23T13:50:47;4.45;;;2.30;;
74152;SDS011;62505;46.070;14.492;2024-03-23T13:53:14;3.97;;;2.30;;
74152;SDS011;62505;46.070;14.492;2024-03-23T13:55:45;6.15;;;2.40;;
74152;SDS011;62505;46.070;14.492;2024-03-23T13:58:13;6.57;;;2.42;;
74152;SDS011;62505;46.070;14.492;2024-03-23T14:00:39;4.10;;;2.10;;
74152;SDS011;62505;46.070;14.492;2024-03-23T14:03:09;5.45;;;2.13;;
74152;SDS011;62505;46.070;14.492;2024-03-23T14:05:35;2.83;;;2.10;;
74152;SDS011;62505;46.070;14.492;2024-03-23T14:08:03;4.65;;;2.38;;
74152;SDS011;62505;46.070;14.492;2024-03-23T14:10:30;5.15;;;2.35;;
74152;SDS011;62505;46.070;14.492;2024-03-23T14:12:57;5.05;;;2.40;;
74152;SDS011;62505;46.070;14.492;2024-03-23T14:15:22;5.18;;;2.05;;
74152;SDS011;62505;46.070;14.492;2024-03-23T14:17:49;4.15;;;2.58;;
74152;SDS011;62505;46.070;14.492;2024-03-23T14:20:17;5.28;;;2.35;;
74152;SDS011;62505;46.070;14.492;2024-03-23T14:22:44;4.90;;;2.33;;
74152;SDS011;62505;46.070;14.492;2024-03-23T14:25:10;4.82;;;2.42;;
74152;SDS011;62505;46.070;14.492;2024-03-23T14:27:37;5.25;;;2.15;;
74152;SDS011;62505;46.070;14.492;2024-03-23T14:30:03;5.28;;;2.35;;
74152;SDS011;62505;46.070;14.492;2024-03-23T14:32:31;4.20;;;2.28;;
74152;SDS011;62505;46.070;14.492;2024-03-23T14:34:59;3.55;;;2.10;;
74152;SDS011;62505;46.070;14.492;2024-03-23T14:37:27;3.15;;;2.17;;
74152;SDS011;62505;46.070;14.492;2024-03-23T14:39:55;3.65;;;2.17;;
74152;SDS011;62505;46.070;14.492;2024-03-23T14:42:22;5.32;;;2.30;;
74152;SDS011;62505;46.070;14.492;2024-03-23T14:44:49;3.25;;;2.17;;
74152;SDS011;62505;46.070;14.492;2024-03-23T14:47:16;4.53;;;2.03;;
74152;SDS011;62505;46.070;14.492;2024-03-23T14:49:43;3.55;;;2.38;;
74152;SDS011;62505;46.070;14.492;2024-03-23T14:52:12;6.32;;;2.33;;
74152;SDS011;62505;46.070;14.492;2024-03-23T14:54:40;3.05;;;2.10;;
74152;SDS011;62505;46.070;14.492;2024-03-23T14:57:06;3.35;;;2.22;;
74152;SDS011;62505;46.070;14.492;2024-03-23T14:59:34;5.57;;;2.13;;
74152;SDS011;62505;46.070;14.492;2024-03-23T15:02:00;5.00;;;1.90;;
74152;SDS011;62505;46.070;14.492;2024-03-23T15:04:27;4.20;;;2.00;;
74152;SDS011;62505;46.070;14.492;2024-03-23T15:06:53;4.88;;;2.42;;
74152;SDS011;62505;46.070;14.492;2024-03-23T15:09:20;3.55;;;2.15;;
74152;SDS011;62505;46.070;14.492;2024-03-23T15:11:47;3.85;;;2.10;;
74152;SDS011;62505;46.070;14.492;2024-03-23T15:14:14;4.93;;;2.28;;
74152;SDS011;62505;46.070;14.492;2024-03-23T15:16:40;5.05;;;1.92;;
74152;SDS011;62505;46.070;14.492;2024-03-23T15:19:07;3.15;;;2.00;;
74152;SDS011;62505;46.070;14.492;2024-03-23T15:21:33;3.78;;;2.50;;
74152;SDS011;62505;46.070;14.492;2024-03-23T15:24:00;1.88;;;1.67;;
74152;SDS011;62505;46.070;14.492;2024-03-23T15:26:26;3.78;;;2.75;;
74152;SDS011;62505;46.070;14.492;2024-03-23T15:28:55;2.17;;;1.80;;